Accueil
METAR-TAF:

METAR-TAF

Aéroports :

Opelousas, Louisiane, États-Unis

latitude: 30-33-30N, longitude: 092-05-58W, altitude: 23 m

Observation

Le bulletin a été fait il y a 50 minutes, à 16:10 UTC
Vent 7 kt de sud/sud-ouest
Température 30°C
Humidité 70%
Pression 1017 hPa
Visibilité: 16.1 km
Nuages épars à une hauteur de 2500 ft
Nuages épars à une hauteur de 3400 ft
Nuages épars à une hauteur de 3900 ft

METAR: KOPL 221610Z AUTO 21007KT 10SM SCT025 SCT034 SCT039 30/24 A3004 RMK AO2 LTG DSNT W T02970240

Heure: 12:00 (17:00 UTC)


TAF: absent

Observations et prévisions météorologiques de plus de 4000 aéroports (messages METAR et TAF).

Les stations disponibles sont représentées par des disques jaunes et rouges sur la carte.

Passer la souris dessus pour voir le nom de la station.

Cliquer dessus pour voir les observations et prévisions météorologiques.

Pour changer de carte: cliquez sur les boutons verts avec une croix noire pour zoomer, sur le bouton vert avec un tiret pour effectuer un zoom arrière, ou sur les flèches vertes pour les cartes adjacentes.


METAR-TAF: